createdAt,value
2022-09-21T00:01:24.765Z,7.67
2022-09-21T00:03:54.525Z,7.60
2022-09-21T00:06:24.043Z,7.60
2022-09-21T00:08:52.979Z,7.52
2022-09-21T00:14:46.178Z,7.52
2022-09-21T00:17:14.148Z,7.49
2022-09-21T00:19:42.161Z,7.49
2022-09-21T00:22:10.872Z,7.50
2022-09-21T00:24:38.188Z,7.43
2022-09-21T00:30:06.114Z,7.34
2022-09-21T00:32:36.976Z,7.29
2022-09-21T00:35:06.808Z,7.26
2022-09-21T00:37:35.129Z,7.36
2022-09-21T00:40:03.255Z,7.31
2022-09-21T00:43:16.908Z,7.35
2022-09-21T00:45:48.240Z,7.28
2022-09-21T00:51:09.160Z,7.19
2022-09-21T00:53:42.748Z,7.17
2022-09-21T00:56:11.651Z,7.15
2022-09-21T01:01:38.552Z,7.24
2022-09-21T01:04:07.103Z,7.26
2022-09-21T01:06:36.849Z,7.22
2022-09-21T01:09:04.825Z,7.17
2022-09-21T01:11:43.504Z,7.12
2022-09-21T01:14:37.616Z,7.09
2022-09-21T01:17:44.331Z,7.11
2022-09-21T01:20:29.417Z,6.96
2022-09-21T01:23:20.072Z,7.01
2022-09-21T01:26:12.264Z,7.00
2022-09-21T01:29:01.495Z,6.91
2022-09-21T01:32:16.757Z,6.83
2022-09-21T01:34:54.502Z,6.94
2022-09-21T01:37:36.184Z,6.87
2022-09-21T01:40:11.071Z,6.84
2022-09-21T01:42:40.914Z,6.80
2022-09-21T01:45:17.207Z,6.80
2022-09-21T01:47:47.752Z,6.90
2022-09-21T01:50:26.818Z,6.86
2022-09-21T01:53:11.429Z,6.76
2022-09-21T01:55:49.830Z,6.72
2022-09-21T01:58:33.107Z,6.70
2022-09-21T02:01:00.942Z,6.73
2022-09-21T02:03:54.385Z,6.70
2022-09-21T02:06:24.667Z,6.77
2022-09-21T02:09:03.265Z,6.70
2022-09-21T02:11:30.239Z,6.66
2022-09-21T02:13:58.160Z,6.62
2022-09-21T02:16:38.812Z,6.68
2022-09-21T02:19:46.696Z,6.72
2022-09-21T02:22:34.246Z,6.72
2022-09-21T02:25:15.763Z,6.62
2022-09-21T02:28:06.372Z,6.48
2022-09-21T02:30:35.948Z,6.43
2022-09-21T02:33:09.120Z,6.56
2022-09-21T02:35:58.665Z,6.54
2022-09-21T02:38:38.554Z,6.52
2022-09-21T02:44:38.143Z,6.53
2022-09-21T02:47:31.595Z,6.50
2022-09-21T02:50:11.282Z,6.48
2022-09-21T02:52:41.495Z,6.39
2022-09-21T02:55:09.876Z,6.33
2022-09-21T02:57:38.884Z,6.28
2022-09-21T03:03:22.045Z,6.29
2022-09-21T03:05:53.491Z,6.26
2022-09-21T03:08:22.047Z,6.41
2022-09-21T03:10:53.222Z,6.28
2022-09-21T03:13:46.598Z,6.28
2022-09-21T03:16:15.651Z,6.28
2022-09-21T03:18:44.602Z,6.20
2022-09-21T03:21:18.302Z,6.20
2022-09-21T03:23:46.139Z,6.21
2022-09-21T03:26:19.251Z,6.15
2022-09-21T03:28:46.135Z,6.15
2022-09-21T03:31:14.282Z,6.21
2022-09-21T03:33:42.137Z,6.08
2022-09-21T03:36:15.206Z,6.08
2022-09-21T03:38:47.180Z,6.17
2022-09-21T03:41:15.265Z,6.03
2022-09-21T03:43:42.169Z,6.00
2022-09-21T03:49:03.003Z,5.98
2022-09-21T03:54:29.627Z,6.04
2022-09-21T03:57:01.169Z,5.94
2022-09-21T03:59:28.133Z,6.03
2022-09-21T04:01:56.185Z,6.03
2022-09-21T04:04:24.145Z,6.03
2022-09-21T04:06:56.398Z,5.95
2022-09-21T04:09:24.257Z,5.90
2022-09-21T04:14:46.278Z,5.97
2022-09-21T04:17:14.655Z,5.82
2022-09-21T04:19:47.214Z,5.86
2022-09-21T04:22:24.832Z,5.94
2022-09-21T04:24:52.420Z,5.82
2022-09-21T04:27:29.872Z,5.79
2022-09-21T04:30:03.386Z,5.83
2022-09-21T04:32:30.158Z,5.91
2022-09-21T04:34:58.261Z,5.80
2022-09-21T04:37:26.259Z,5.72
2022-09-21T04:39:54.134Z,5.74
2022-09-21T04:42:47.824Z,5.76
2022-09-21T04:45:16.189Z,5.84
2022-09-21T04:47:44.153Z,5.82
2022-09-21T04:50:12.258Z,5.73
2022-09-21T04:52:40.604Z,5.66
2022-09-21T04:55:08.375Z,5.80
2022-09-21T05:00:55.891Z,5.69
2022-09-21T05:03:48.248Z,5.67
2022-09-21T05:06:25.179Z,5.79
2022-09-21T05:12:03.118Z,5.67
2022-09-21T05:14:30.166Z,5.63
2022-09-21T05:17:03.262Z,5.66
2022-09-21T05:19:30.236Z,5.65
2022-09-21T05:22:02.224Z,5.79
2022-09-21T05:27:46.301Z,5.73
2022-09-21T05:30:38.523Z,5.80
2022-09-21T05:36:34.578Z,5.77
2022-09-21T05:39:03.026Z,5.70
2022-09-21T05:41:35.903Z,5.70
2022-09-21T05:47:05.743Z,5.82
2022-09-21T05:49:51.419Z,5.86
2022-09-21T05:52:20.838Z,5.90
2022-09-21T05:55:31.835Z,6.01
2022-09-21T05:58:53.458Z,6.01
2022-09-21T06:01:23.247Z,6.10
2022-09-21T06:03:50.480Z,6.21
2022-09-21T06:06:18.997Z,6.18
2022-09-21T06:09:12.178Z,6.26
2022-09-21T06:11:40.181Z,6.33
2022-09-21T06:14:32.741Z,6.39
2022-09-21T06:17:00.364Z,6.41
2022-09-21T06:19:28.537Z,6.54
2022-09-21T06:22:00.176Z,6.57
2022-09-21T06:24:28.257Z,6.65
2022-09-21T06:26:56.568Z,6.70
2022-09-21T06:29:24.539Z,6.79
2022-09-21T06:31:52.352Z,6.96
2022-09-21T06:34:20.286Z,7.04
2022-09-21T06:36:48.182Z,7.12
2022-09-21T06:39:20.177Z,7.24
2022-09-21T06:41:48.222Z,7.36
2022-09-21T06:44:21.183Z,7.47
2022-09-21T06:49:42.475Z,7.66
2022-09-21T06:52:10.323Z,7.77
2022-09-21T06:54:38.927Z,7.84
2022-09-21T06:57:06.403Z,7.91
2022-09-21T06:59:34.179Z,8.04
2022-09-21T07:02:02.261Z,8.08
2022-09-21T07:04:30.124Z,8.05
2022-09-21T07:07:24.369Z,8.32
2022-09-21T07:10:12.086Z,8.39
2022-09-21T07:12:44.924Z,8.56
2022-09-21T07:15:13.405Z,8.73
2022-09-21T07:17:40.312Z,8.91
2022-09-21T07:20:08.588Z,8.87
2022-09-21T07:22:36.566Z,9.07
2022-09-21T07:25:05.442Z,9.08
2022-09-21T07:27:33.201Z,9.25
2022-09-21T07:30:00.210Z,9.28
2022-09-21T07:32:28.304Z,9.47
2022-09-21T07:34:56.963Z,9.66
2022-09-21T07:37:25.343Z,9.83
2022-09-21T07:39:53.116Z,9.97
2022-09-21T07:42:27.913Z,10.02
2022-09-21T07:45:03.852Z,10.18
2022-09-21T07:47:32.324Z,10.37
2022-09-21T07:50:00.362Z,10.55
2022-09-21T07:52:32.223Z,10.67
2022-09-21T07:55:00.301Z,10.87
2022-09-21T08:00:38.293Z,11.36
2022-09-21T08:03:06.784Z,11.49
2022-09-21T08:05:34.186Z,11.74
2022-09-21T08:08:02.635Z,11.88
2022-09-21T08:10:32.109Z,11.97
2022-09-21T08:13:05.301Z,12.14
2022-09-21T08:15:48.664Z,12.55
2022-09-21T08:21:12.163Z,13.00
2022-09-21T08:26:34.310Z,13.21
2022-09-21T08:29:09.942Z,13.63
2022-09-21T08:31:46.318Z,13.90
2022-09-21T08:34:38.850Z,14.00
2022-09-21T08:37:06.144Z,14.32
2022-09-21T08:39:34.228Z,14.51
2022-09-21T08:42:11.422Z,14.53
2022-09-21T08:44:44.068Z,14.87
2022-09-21T08:47:26.339Z,15.00
2022-09-21T08:50:07.016Z,15.25
2022-09-21T08:52:34.956Z,15.46
2022-09-21T09:01:21.424Z,15.67
2022-09-21T09:07:19.573Z,16.26
2022-09-21T09:13:10.798Z,16.42
2022-09-21T09:15:45.421Z,16.17
2022-09-21T09:18:17.808Z,16.41
2022-09-21T09:20:56.872Z,16.60
2022-09-21T09:23:29.061Z,16.63
2022-09-21T09:48:50.721Z,17.53
2022-09-21T09:54:10.450Z,17.87
2022-09-21T11:15:35.384Z,17.27
2022-09-21T11:18:09.371Z,17.17
2022-09-21T11:20:55.191Z,17.31
2022-09-21T11:23:46.011Z,17.07
2022-09-21T11:26:30.507Z,17.19
2022-09-21T11:29:01.573Z,17.34
2022-09-21T11:31:40.657Z,16.83
2022-09-21T11:34:44.728Z,17.11
2022-09-21T11:37:28.829Z,17.32
2022-09-21T12:02:42.880Z,17.31
2022-09-21T12:05:36.330Z,17.39
2022-09-21T12:08:26.108Z,17.43
2022-09-21T12:11:14.286Z,17.46
2022-09-21T12:14:22.192Z,17.18
2022-09-21T12:17:11.514Z,17.19
2022-09-21T12:20:02.203Z,17.34
2022-09-21T12:22:33.900Z,17.07
2022-09-21T12:25:17.285Z,17.10
2022-09-21T12:27:54.687Z,17.18
2022-09-21T12:30:24.085Z,17.10
2022-09-21T12:32:59.400Z,17.29
2022-09-21T12:35:35.159Z,17.46
2022-09-21T12:41:24.725Z,17.48
2022-09-21T12:44:26.799Z,17.32
2022-09-21T12:47:10.977Z,17.36
2022-09-21T12:49:46.543Z,17.35
2022-09-21T12:52:21.435Z,17.22
2022-09-21T13:15:07.443Z,17.25
2022-09-21T13:17:34.361Z,17.27
2022-09-21T13:20:05.182Z,17.14
2022-09-21T13:32:14.584Z,17.14
2022-09-21T13:34:44.081Z,17.17
2022-09-21T13:37:16.689Z,17.04
2022-09-21T13:40:03.285Z,17.10
2022-09-21T13:45:27.908Z,16.91
2022-09-21T13:48:00.899Z,16.93
2022-09-21T13:50:46.268Z,16.83
2022-09-21T13:53:22.739Z,16.87
2022-09-21T13:56:21.725Z,16.70
2022-09-21T13:59:01.760Z,16.72
2022-09-21T14:01:46.768Z,16.77
2022-09-21T14:04:27.879Z,16.74
2022-09-21T14:06:57.848Z,16.60
2022-09-21T14:10:00.750Z,16.66
2022-09-21T14:12:54.379Z,16.73
2022-09-21T14:15:22.108Z,16.72
2022-09-21T14:18:19.760Z,16.87
2022-09-21T14:21:23.927Z,16.77
2022-09-21T14:24:21.974Z,16.91
2022-09-21T14:26:59.630Z,16.91
2022-09-21T14:29:34.855Z,16.91
2022-09-21T14:32:05.845Z,16.64
2022-09-21T14:34:41.180Z,16.79
2022-09-21T14:37:38.784Z,16.84
2022-09-21T14:43:17.289Z,16.91
2022-09-21T14:46:18.500Z,16.97
2022-09-21T14:52:38.680Z,16.98
2022-09-21T14:55:27.821Z,16.72
2022-09-21T14:58:19.256Z,16.69
2022-09-21T15:00:51.316Z,16.73
2022-09-21T15:06:49.580Z,16.81
2022-09-21T15:09:49.250Z,16.73
2022-09-21T15:12:31.829Z,16.86
2022-09-21T15:16:00.043Z,16.77
2022-09-21T15:19:27.993Z,16.81
2022-09-21T15:22:17.969Z,16.72
2022-09-21T15:24:59.180Z,16.80
2022-09-21T15:27:34.096Z,16.87
2022-09-21T15:30:05.937Z,16.87
2022-09-21T15:32:41.148Z,16.86
2022-09-21T15:35:29.250Z,16.80
2022-09-21T15:38:02.136Z,16.60
2022-09-21T15:40:32.023Z,16.69
2022-09-21T15:43:05.745Z,16.63
2022-09-21T15:45:38.958Z,16.64
2022-09-21T15:48:14.436Z,16.69
2022-09-21T15:50:48.606Z,16.69
2022-09-21T15:53:26.999Z,16.57
2022-09-21T15:55:56.025Z,16.52
2022-09-21T15:58:42.768Z,16.45
2022-09-21T16:01:24.344Z,16.49
2022-09-21T16:13:56.815Z,16.04
2022-09-21T16:16:24.333Z,16.13
2022-09-21T16:18:55.211Z,15.96
2022-09-21T16:21:34.173Z,15.91
2022-09-21T16:24:19.514Z,15.71
2022-09-21T16:27:01.569Z,15.73
2022-09-21T16:29:39.980Z,15.69
2022-09-21T16:32:27.474Z,15.56
2022-09-21T16:35:32.835Z,15.49
2022-09-21T16:38:09.953Z,15.34
2022-09-21T16:40:39.631Z,15.34
2022-09-21T16:43:10.724Z,15.31
2022-09-21T16:45:38.541Z,15.15
2022-09-21T16:48:07.858Z,15.08
2022-09-21T16:50:36.482Z,15.01
2022-09-21T16:53:04.756Z,14.98
2022-09-21T16:55:39.624Z,14.90
2022-09-21T16:58:06.168Z,14.81
2022-09-21T17:01:00.844Z,14.76
2022-09-21T17:03:30.750Z,14.69
2022-09-21T17:05:58.262Z,14.63
2022-09-21T17:08:28.094Z,14.60
2022-09-21T17:11:03.099Z,14.53
2022-09-21T17:13:32.123Z,14.46
2022-09-21T17:16:00.602Z,14.42
2022-09-21T17:18:35.733Z,14.29
2022-09-21T17:21:04.544Z,14.25
2022-09-21T17:23:32.149Z,14.18
2022-09-21T17:26:00.311Z,14.10
2022-09-21T17:28:32.497Z,14.04
2022-09-21T17:34:23.358Z,13.83
2022-09-21T17:36:50.742Z,13.76
2022-09-21T17:39:20.136Z,13.73
2022-09-21T17:42:16.562Z,13.57
2022-09-21T17:45:06.712Z,13.62
2022-09-21T17:47:35.043Z,13.50
2022-09-21T17:50:08.212Z,13.50
2022-09-21T17:53:01.009Z,13.38
2022-09-21T17:55:28.915Z,13.36
2022-09-21T17:58:23.371Z,13.26
2022-09-21T18:01:14.934Z,13.22
2022-09-21T18:03:44.477Z,13.14
2022-09-21T18:06:12.616Z,13.12
2022-09-21T18:08:44.407Z,13.15
2022-09-21T18:11:18.405Z,13.16
2022-09-21T18:14:08.881Z,13.04
2022-09-21T18:17:11.066Z,13.03
2022-09-21T18:20:06.209Z,13.05
2022-09-21T18:23:14.854Z,13.00
2022-09-21T18:25:50.500Z,12.98
2022-09-21T18:28:46.947Z,12.96
2022-09-21T18:32:01.137Z,12.98
2022-09-21T18:34:40.194Z,12.87
2022-09-21T18:37:42.998Z,12.91
2022-09-21T18:40:24.261Z,12.88
2022-09-21T18:43:02.200Z,12.85
2022-09-21T18:45:38.188Z,12.81
2022-09-21T18:48:23.074Z,12.74
2022-09-21T18:54:22.632Z,12.59
2022-09-21T18:56:50.516Z,12.55
2022-09-21T18:59:18.781Z,12.38
2022-09-21T19:01:48.462Z,12.41
2022-09-21T19:04:21.266Z,12.33
2022-09-21T19:10:44.234Z,12.25
2022-09-21T19:13:31.700Z,12.20
2022-09-21T19:16:17.583Z,12.15
2022-09-21T19:19:17.235Z,12.08
2022-09-21T19:21:58.801Z,12.08
2022-09-21T19:25:24.950Z,12.04
2022-09-21T19:28:36.373Z,11.85
2022-09-21T19:31:13.108Z,11.77
2022-09-21T19:33:55.685Z,11.77
2022-09-21T19:36:24.327Z,11.70
2022-09-21T19:38:53.178Z,11.69
2022-09-21T19:45:13.777Z,11.65
2022-09-21T19:48:13.420Z,11.59
2022-09-21T19:50:50.122Z,11.53
2022-09-21T19:53:36.933Z,11.52
2022-09-21T19:56:28.205Z,11.42
2022-09-21T19:59:20.452Z,11.39
2022-09-21T20:02:02.055Z,11.30
2022-09-21T20:04:48.779Z,11.29
2022-09-21T20:07:37.087Z,11.25
2022-09-21T20:10:27.957Z,11.34
2022-09-21T20:13:22.364Z,11.19
2022-09-21T20:16:21.911Z,11.18
2022-09-21T20:19:17.529Z,11.28
2022-09-21T20:22:19.490Z,11.34
2022-09-21T20:24:54.637Z,11.34
2022-09-21T20:27:32.376Z,11.23
2022-09-21T20:30:05.220Z,11.30
2022-09-21T20:32:34.114Z,11.39
2022-09-21T20:35:07.664Z,11.36
2022-09-21T20:37:36.185Z,11.32
2022-09-21T20:40:04.661Z,11.28
2022-09-21T20:42:33.564Z,11.35
2022-09-21T20:45:00.284Z,11.42
2022-09-21T20:47:30.014Z,11.34
2022-09-21T20:50:03.306Z,11.28
2022-09-21T20:52:31.749Z,11.25
2022-09-21T20:55:00.933Z,11.26
2022-09-21T20:57:28.341Z,11.25
2022-09-21T20:59:56.175Z,11.29
2022-09-21T21:02:33.155Z,11.29
2022-09-21T21:05:00.632Z,11.16
2022-09-21T21:07:30.682Z,11.14
2022-09-21T21:09:58.683Z,11.04
2022-09-21T21:12:26.209Z,11.02
2022-09-21T21:14:54.553Z,11.00
2022-09-21T21:17:49.022Z,10.92
2022-09-21T21:20:17.009Z,10.98
2022-09-21T21:22:45.614Z,11.05
2022-09-21T21:25:36.877Z,10.92
2022-09-21T21:28:30.234Z,10.83
2022-09-21T21:35:37.498Z,10.77
2022-09-21T21:38:19.637Z,10.74
2022-09-21T21:41:13.504Z,10.66
2022-09-21T21:43:43.059Z,10.57
2022-09-21T22:04:45.589Z,10.33
2022-09-21T22:07:12.208Z,10.25
2022-09-21T22:09:45.301Z,10.22
2022-09-21T22:12:12.455Z,10.21
2022-09-21T22:14:46.484Z,10.15
2022-09-21T22:17:14.414Z,10.15
2022-09-21T22:19:49.392Z,10.17
2022-09-21T22:22:16.339Z,10.18
2022-09-21T22:24:49.219Z,10.08
2022-09-21T22:27:16.683Z,10.02
2022-09-21T22:29:50.213Z,10.01
2022-09-21T22:32:18.809Z,10.05
2022-09-21T22:34:46.441Z,9.90
2022-09-21T22:37:39.872Z,9.87
2022-09-21T22:40:08.816Z,9.77
2022-09-21T22:42:36.167Z,9.71
2022-09-21T22:45:04.430Z,9.70
2022-09-21T22:47:32.137Z,9.74
2022-09-21T22:50:00.165Z,9.71
2022-09-21T22:52:28.138Z,9.73
2022-09-21T22:55:20.193Z,9.70
2022-09-21T22:57:48.181Z,9.61
2022-09-21T23:00:25.212Z,9.59
2022-09-21T23:02:56.111Z,9.54
2022-09-21T23:05:24.379Z,9.44
2022-09-21T23:08:21.205Z,9.47
2022-09-21T23:10:48.456Z,9.47
2022-09-21T23:13:16.356Z,9.53
2022-09-21T23:15:44.157Z,9.44
2022-09-21T23:18:17.202Z,9.38
2022-09-21T23:20:44.222Z,9.40
2022-09-21T23:23:12.309Z,9.35
2022-09-21T23:25:40.577Z,9.38
2022-09-21T23:28:08.201Z,9.26
2022-09-21T23:30:41.218Z,9.15
2022-09-21T23:33:08.271Z,9.25
2022-09-21T23:35:41.320Z,9.26
2022-09-21T23:38:08.346Z,9.22
2022-09-21T23:40:41.348Z,9.12
2022-09-21T23:43:08.329Z,9.07
2022-09-21T23:46:02.800Z,9.11
2022-09-21T23:48:30.618Z,9.00
2022-09-21T23:53:50.612Z,8.95
2022-09-21T23:56:49.017Z,9.03
2022-09-21T23:59:16.158Z,9.00
